CYXX

Abbotsford Airport

Abbotsford, , Canada
METAR CYXX 192000Z 26007KT 200V270 30SM FEW080 26/14 A3002 RMK AC1 AC TR SLP167 DENSITY ALT 1500FT
Observed Flight Rules
Jun-19 @ 20:00 UTC (12 minutes ago) Visual Flight Rules
Wind Visibility Clouds
260° at 7 knots 30 miles
  • Few at 8,000' AGL
Temperatures Readings
Current 26°C / 79°F
Dewpoint 14°C / 57°F
Humidity 48%
Altimeter 30.02" Hg
Pressure 1016.7 hPa
Elevation 58
METAR CYXX 192000Z 26007KT 200V270 30SM FEW080 26/14 A3002 RMK AC1 AC TR SLP167 DENSITY ALT 1500FT
Observed Flight Rules
Jun-19 @ 20:00 UTC
(12 minutes ago)
VFR
Wind Visibility
260° at 7 knots 30 miles
Clouds
  • Few at 8,000' AGL
Temperature Dewpoint
26°C / 79°F 14°C / 57°F
Humidity Altimeter Pressure
48% 30.02" Hg 1016.7 hPa